createdAt,value
2022-08-07T00:00:42.344Z,27.92
2022-08-07T00:03:47.384Z,28.08
2022-08-07T00:06:51.808Z,28.12
2022-08-07T00:10:18.747Z,28.12
2022-08-07T00:13:23.881Z,28.01
2022-08-07T00:16:30.109Z,27.74
2022-08-07T00:20:01.568Z,27.88
2022-08-07T00:22:57.428Z,27.85
2022-08-07T00:26:18.573Z,27.79
2022-08-07T00:29:31.460Z,27.47
2022-08-07T00:32:35.566Z,27.66
2022-08-07T00:35:39.174Z,27.31
2022-08-07T00:38:42.782Z,27.55
2022-08-07T00:42:01.781Z,27.59
2022-08-07T00:45:16.078Z,27.52
2022-08-07T00:48:19.768Z,27.21
2022-08-07T00:51:57.071Z,27.64
2022-08-07T00:54:57.644Z,27.55
2022-08-07T00:58:03.920Z,27.56
2022-08-07T01:01:08.408Z,27.59
2022-08-07T01:04:11.788Z,27.64
2022-08-07T01:07:29.838Z,27.65
2022-08-07T01:10:34.981Z,27.79
2022-08-07T01:13:40.560Z,27.65
2022-08-07T01:17:00.266Z,27.53
2022-08-07T01:20:10.493Z,27.28
2022-08-07T01:23:34.666Z,26.89
2022-08-07T01:26:43.888Z,26.86
2022-08-07T01:29:56.508Z,26.55
2022-08-07T01:33:00.590Z,26.86
2022-08-07T01:36:09.943Z,26.65
2022-08-07T01:39:18.286Z,26.57
2022-08-07T01:42:39.847Z,26.32
2022-08-07T01:45:55.004Z,26.22
2022-08-07T01:49:02.819Z,25.70
2022-08-07T01:52:09.354Z,26.40
2022-08-07T01:55:22.251Z,26.57
2022-08-07T01:58:34.154Z,25.65
2022-08-07T02:01:59.781Z,26.32
2022-08-07T02:05:16.205Z,26.55
2022-08-07T02:08:42.416Z,26.18
2022-08-07T02:12:03.554Z,26.18
2022-08-07T02:15:15.092Z,25.81
2022-08-07T02:18:22.263Z,26.11
2022-08-07T02:21:55.831Z,25.92
2022-08-07T02:24:55.761Z,26.11
2022-08-07T02:28:03.552Z,26.32
2022-08-07T02:31:28.413Z,25.88
2022-08-07T02:34:35.893Z,26.46
2022-08-07T02:37:54.596Z,26.40
2022-08-07T02:40:59.640Z,26.07
2022-08-07T02:44:06.364Z,25.57
2022-08-07T02:47:19.225Z,26.07
2022-08-07T02:50:26.754Z,26.25
2022-08-07T02:53:38.711Z,26.10
2022-08-07T02:56:47.835Z,26.10
2022-08-07T03:00:00.856Z,25.87
2022-08-07T03:03:13.327Z,26.11
2022-08-07T03:06:26.300Z,26.10
2022-08-07T03:09:44.572Z,26.29
2022-08-07T03:12:50.236Z,26.42
2022-08-07T03:15:58.458Z,26.24
2022-08-07T03:19:06.333Z,26.28
2022-08-07T03:22:18.990Z,25.95
2022-08-07T03:25:25.785Z,26.10
2022-08-07T03:28:39.614Z,26.31
2022-08-07T03:31:50.046Z,25.56
2022-08-07T03:35:00.936Z,25.82
2022-08-07T03:38:31.123Z,25.32
2022-08-07T03:41:42.371Z,25.37
2022-08-07T03:44:53.645Z,25.25
2022-08-07T03:48:04.180Z,25.52
2022-08-07T03:51:15.371Z,25.83
2022-08-07T03:54:35.097Z,25.86
2022-08-07T03:58:34.194Z,26.15
2022-08-07T04:01:17.326Z,26.32
2022-08-07T04:04:25.402Z,26.55
2022-08-07T04:07:35.895Z,26.80
2022-08-07T04:10:54.289Z,27.00
2022-08-07T04:14:38.599Z,26.54
2022-08-07T04:18:31.335Z,26.31
2022-08-07T04:21:02.218Z,26.46
2022-08-07T04:24:10.481Z,26.44
2022-08-07T04:27:44.381Z,26.49
2022-08-07T04:30:57.362Z,26.54
2022-08-07T04:34:16.629Z,26.62
2022-08-07T04:37:24.279Z,26.47
2022-08-07T04:40:32.764Z,26.59
2022-08-07T04:44:11.784Z,26.49
2022-08-07T04:47:56.794Z,26.58
2022-08-07T04:50:40.707Z,26.79
2022-08-07T04:54:06.697Z,26.78
2022-08-07T04:58:12.325Z,26.53
2022-08-07T05:00:56.037Z,26.58
2022-08-07T05:04:17.811Z,26.58
2022-08-07T05:07:36.843Z,26.80
2022-08-07T05:10:48.702Z,26.37
2022-08-07T05:14:53.189Z,26.48
2022-08-07T05:18:00.928Z,27.00
2022-08-07T05:20:49.239Z,26.85
2022-08-07T05:23:59.345Z,27.15
2022-08-07T05:27:06.715Z,26.58
2022-08-07T05:30:32.654Z,26.99
2022-08-07T05:33:40.062Z,27.42
2022-08-07T05:36:56.919Z,27.56
2022-08-07T05:40:18.675Z,27.94
2022-08-07T05:43:49.883Z,27.61
2022-08-07T05:46:51.271Z,27.73
2022-08-07T05:49:59.961Z,27.78
2022-08-07T05:53:05.469Z,27.64
2022-08-07T05:56:30.393Z,27.56
2022-08-07T05:59:55.741Z,28.10
2022-08-07T06:03:07.025Z,28.63
2022-08-07T06:06:12.661Z,28.38
2022-08-07T06:10:04.000Z,28.99
2022-08-07T06:12:48.627Z,29.23
2022-08-07T06:15:56.858Z,29.66
2022-08-07T06:19:06.406Z,30.35
2022-08-07T06:22:22.553Z,31.02
2022-08-07T06:25:41.913Z,31.47
2022-08-07T06:29:01.163Z,31.97
2022-08-07T06:32:09.865Z,31.47
2022-08-07T06:35:17.985Z,31.85
2022-08-07T06:38:22.602Z,31.32
2022-08-07T06:42:02.409Z,31.05
2022-08-07T06:45:17.980Z,31.73
2022-08-07T06:48:29.668Z,32.22
2022-08-07T06:51:49.367Z,32.80
2022-08-07T06:55:32.878Z,32.33
2022-08-07T06:58:24.625Z,32.60
2022-08-07T07:01:43.847Z,32.68
2022-08-07T07:04:55.911Z,33.03
2022-08-07T07:08:06.465Z,33.20
2022-08-07T07:11:13.791Z,33.23
2022-08-07T07:14:40.598Z,33.18
2022-08-07T07:17:52.322Z,33.13
2022-08-07T07:21:03.947Z,33.73
2022-08-07T07:24:12.549Z,34.34
2022-08-07T07:27:18.504Z,33.75
2022-08-07T07:30:32.529Z,33.05
2022-08-07T07:33:44.795Z,33.28
2022-08-07T07:37:14.349Z,33.30
2022-08-07T07:40:26.292Z,33.47
2022-08-07T07:43:48.232Z,34.09
2022-08-07T07:47:14.267Z,33.84
2022-08-07T07:50:33.100Z,34.26
2022-08-07T07:53:51.745Z,34.10
2022-08-07T07:56:58.343Z,33.72
2022-08-07T08:00:09.183Z,33.49
2022-08-07T08:04:10.231Z,32.83
2022-08-07T08:06:51.145Z,32.76
2022-08-07T08:10:05.477Z,33.08
2022-08-07T08:13:15.214Z,33.35
2022-08-07T08:16:25.257Z,33.47
2022-08-07T08:20:18.573Z,34.67
2022-08-07T08:23:14.294Z,34.94
2022-08-07T08:26:38.219Z,34.78
2022-08-07T08:29:54.139Z,35.06
2022-08-07T08:33:03.020Z,35.00
2022-08-07T08:36:08.746Z,35.88
2022-08-07T08:39:13.068Z,35.88
2022-08-07T08:42:27.102Z,36.48
2022-08-07T08:45:42.074Z,35.97
2022-08-07T08:49:12.465Z,36.11
2022-08-07T08:52:23.467Z,35.90
2022-08-07T08:55:55.238Z,35.74
2022-08-07T08:59:13.584Z,35.68
2022-08-07T09:02:34.655Z,35.44
2022-08-07T09:05:47.973Z,35.58
2022-08-07T09:09:00.264Z,34.75
2022-08-07T09:12:31.361Z,34.90
2022-08-07T09:16:24.186Z,35.22
2022-08-07T09:19:53.079Z,34.96
2022-08-07T09:24:31.969Z,35.24
2022-08-07T09:26:34.797Z,35.98
2022-08-07T09:30:03.265Z,36.03
2022-08-07T09:33:40.934Z,35.76
2022-08-07T09:36:57.053Z,34.41
2022-08-07T09:40:07.057Z,33.94
2022-08-07T09:44:03.666Z,33.40
2022-08-07T09:47:49.518Z,34.69
2022-08-07T09:50:40.971Z,35.53
2022-08-07T09:53:59.279Z,35.77
2022-08-07T09:57:49.433Z,36.17
2022-08-07T10:01:14.991Z,36.24
2022-08-07T10:05:00.683Z,37.05
2022-08-07T10:08:39.043Z,36.08
2022-08-07T10:12:00.301Z,36.24
2022-08-07T10:15:23.497Z,36.55
2022-08-07T10:18:56.835Z,36.72
2022-08-07T10:22:24.929Z,37.28
2022-08-07T10:25:53.098Z,37.27
2022-08-07T10:29:09.641Z,37.40
2022-08-07T10:32:52.647Z,37.61
2022-08-07T10:40:08.883Z,36.49
2022-08-07T10:43:34.430Z,35.97
2022-08-07T10:46:48.057Z,35.50
2022-08-07T10:53:52.303Z,35.75
2022-08-07T10:57:11.343Z,35.35
2022-08-07T11:00:39.372Z,35.45
2022-08-07T11:03:55.193Z,35.12
2022-08-07T11:07:24.809Z,35.11
2022-08-07T11:10:40.764Z,35.14
2022-08-07T11:14:46.519Z,34.73
2022-08-07T11:17:42.599Z,35.06
2022-08-07T11:20:50.969Z,35.73
2022-08-07T11:23:59.593Z,35.87
2022-08-07T11:27:13.608Z,35.43
2022-08-07T11:30:39.135Z,36.16
2022-08-07T11:33:58.610Z,36.84
2022-08-07T11:37:24.451Z,36.81
2022-08-07T11:40:50.484Z,37.43
2022-08-07T11:44:12.175Z,36.73
2022-08-07T11:47:38.811Z,35.95
2022-08-07T11:51:10.618Z,35.47
2022-08-07T11:54:46.326Z,35.58
2022-08-07T11:58:13.240Z,35.79
2022-08-07T12:01:59.982Z,35.29
2022-08-07T12:05:28.951Z,34.99
2022-08-07T12:08:42.548Z,34.88
2022-08-07T12:12:10.013Z,34.57
2022-08-07T12:15:46.106Z,34.22
2022-08-07T12:18:47.520Z,34.13
2022-08-07T12:22:38.781Z,34.04
2022-08-07T12:26:03.022Z,34.30
2022-08-07T12:29:37.234Z,34.07
2022-08-07T12:32:49.223Z,34.12
2022-08-07T12:35:57.797Z,33.96
2022-08-07T12:39:09.435Z,33.36
2022-08-07T12:42:32.399Z,34.17
2022-08-07T12:45:52.305Z,34.82
2022-08-07T12:49:10.265Z,35.28
2022-08-07T12:52:46.329Z,35.53
2022-08-07T12:56:03.670Z,35.70
2022-08-07T12:59:20.644Z,36.13
2022-08-07T13:02:44.040Z,35.27
2022-08-07T13:06:22.044Z,34.90
2022-08-07T13:10:21.619Z,34.44
2022-08-07T13:13:47.150Z,34.30
2022-08-07T13:17:06.350Z,34.00
2022-08-07T13:20:17.154Z,33.78
2022-08-07T13:24:04.356Z,33.82
2022-08-07T13:27:05.755Z,33.74
2022-08-07T13:30:19.353Z,33.81
2022-08-07T13:34:30.354Z,33.74
2022-08-07T13:37:20.177Z,33.71
2022-08-07T13:40:42.173Z,33.60
2022-08-07T13:43:52.577Z,33.37
2022-08-07T13:47:00.465Z,33.52
2022-08-07T13:50:33.799Z,33.54
2022-08-07T13:53:49.978Z,33.47
2022-08-07T13:56:59.901Z,33.57
2022-08-07T14:00:06.505Z,33.64
2022-08-07T14:03:41.275Z,33.42
2022-08-07T14:06:46.232Z,33.76
2022-08-07T14:10:14.897Z,33.70
2022-08-07T14:13:33.161Z,32.98
2022-08-07T14:16:41.485Z,31.80
2022-08-07T14:20:40.178Z,31.63
2022-08-07T14:23:59.066Z,31.52
2022-08-07T14:26:52.375Z,31.43
2022-08-07T14:30:10.031Z,30.93
2022-08-07T14:33:17.708Z,30.94
2022-08-07T14:36:28.034Z,30.74
2022-08-07T14:40:17.170Z,30.82
2022-08-07T14:43:55.925Z,30.93
2022-08-07T14:46:33.251Z,31.25
2022-08-07T14:49:57.884Z,31.74
2022-08-07T14:56:32.092Z,31.03
2022-08-07T15:00:04.724Z,30.76
2022-08-07T15:03:18.641Z,30.83
2022-08-07T15:06:25.993Z,30.86
2022-08-07T15:09:57.475Z,30.92
2022-08-07T15:13:01.162Z,31.23
2022-08-07T15:16:14.639Z,30.72
2022-08-07T15:20:31.011Z,30.83
2022-08-07T15:22:53.823Z,30.65
2022-08-07T15:25:59.962Z,30.62
2022-08-07T15:30:04.602Z,30.60
2022-08-07T15:32:39.064Z,30.32
2022-08-07T15:39:12.391Z,30.11
2022-08-07T15:42:46.849Z,30.48
2022-08-07T15:46:00.070Z,31.09
2022-08-07T15:49:12.619Z,31.22
2022-08-07T15:52:38.195Z,31.46
2022-08-07T15:55:54.024Z,31.73
2022-08-07T15:59:16.608Z,31.37
2022-08-07T16:02:29.018Z,31.45
2022-08-07T16:05:36.121Z,31.37
2022-08-07T16:08:45.498Z,31.22
2022-08-07T16:12:13.437Z,31.50
2022-08-07T16:15:57.978Z,31.32
2022-08-07T16:19:42.949Z,31.35
2022-08-07T16:23:05.515Z,31.24
2022-08-07T16:26:30.595Z,31.15
2022-08-07T16:30:10.722Z,30.87
2022-08-07T16:34:02.861Z,30.94
2022-08-07T16:37:02.798Z,30.58
2022-08-07T16:41:12.961Z,30.45
2022-08-07T16:45:04.165Z,30.55
2022-08-07T16:48:34.457Z,30.38
2022-08-07T16:52:50.676Z,30.61
2022-08-07T16:55:47.397Z,30.58
2022-08-07T16:59:11.012Z,30.22
2022-08-07T17:02:52.287Z,29.99
2022-08-07T17:06:29.362Z,29.86
2022-08-07T17:10:06.764Z,29.71
2022-08-07T17:13:18.133Z,29.40
2022-08-07T17:16:27.157Z,29.89
2022-08-07T17:20:02.825Z,29.78
2022-08-07T17:23:11.584Z,29.58
2022-08-07T17:26:22.531Z,29.66
2022-08-07T17:30:16.122Z,29.56
2022-08-07T17:34:09.021Z,29.70
2022-08-07T17:36:57.753Z,29.49
2022-08-07T17:40:10.856Z,29.76
2022-08-07T17:43:19.022Z,29.93
2022-08-07T17:46:52.589Z,30.02
2022-08-07T17:50:00.767Z,30.06
2022-08-07T17:53:09.544Z,29.95
2022-08-07T17:56:35.902Z,29.91
2022-08-07T17:59:50.467Z,29.63
2022-08-07T18:02:57.915Z,29.78
2022-08-07T18:06:09.501Z,29.71
2022-08-07T18:10:04.458Z,29.85
2022-08-07T18:13:09.577Z,29.51
2022-08-07T18:16:32.792Z,29.47
2022-08-07T18:21:09.769Z,29.33
2022-08-07T18:23:42.536Z,29.29
2022-08-07T18:27:11.751Z,29.65
2022-08-07T18:30:32.456Z,29.39
2022-08-07T18:34:37.663Z,29.12
2022-08-07T18:38:57.384Z,29.37
2022-08-07T18:41:20.798Z,29.52
2022-08-07T18:44:45.936Z,29.22
2022-08-07T18:48:03.620Z,29.54
2022-08-07T18:52:38.656Z,29.67
2022-08-07T18:54:55.306Z,29.76
2022-08-07T18:58:32.117Z,29.45
2022-08-07T19:02:20.014Z,29.64
2022-08-07T19:05:15.853Z,29.26
2022-08-07T19:08:30.170Z,29.33
2022-08-07T19:12:08.999Z,29.26
2022-08-07T19:16:03.129Z,29.23
2022-08-07T19:18:55.659Z,28.87
2022-08-07T19:22:11.179Z,29.04
2022-08-07T19:26:22.644Z,28.72
2022-08-07T19:30:53.494Z,29.13
2022-08-07T19:32:18.641Z,29.02
2022-08-07T19:35:34.344Z,29.21
2022-08-07T19:38:52.690Z,29.22
2022-08-07T19:42:05.755Z,29.12
2022-08-07T19:46:07.627Z,28.79
2022-08-07T19:48:53.514Z,29.10
2022-08-07T19:52:00.560Z,29.15
2022-08-07T19:55:05.014Z,28.77
2022-08-07T19:58:18.358Z,28.72
2022-08-07T20:01:52.694Z,29.05
2022-08-07T20:04:56.336Z,28.60
2022-08-07T20:08:03.325Z,28.72
2022-08-07T20:11:10.878Z,28.92
2022-08-07T20:14:31.629Z,28.70
2022-08-07T20:17:38.776Z,28.38
2022-08-07T20:20:43.528Z,28.24
2022-08-07T20:23:54.070Z,28.45
2022-08-07T20:27:02.358Z,28.15
2022-08-07T20:30:11.180Z,28.32
2022-08-07T20:33:36.959Z,28.54
2022-08-07T20:36:44.042Z,28.51
2022-08-07T20:40:04.047Z,28.50
2022-08-07T20:43:19.349Z,28.71
2022-08-07T20:46:32.348Z,28.57
2022-08-07T20:50:00.497Z,28.56
2022-08-07T20:53:05.748Z,28.36
2022-08-07T20:56:11.106Z,27.90
2022-08-07T21:00:04.181Z,28.04
2022-08-07T21:02:59.885Z,28.35
2022-08-07T21:06:21.702Z,28.35
2022-08-07T21:09:52.057Z,27.82
2022-08-07T21:13:00.539Z,28.02
2022-08-07T21:16:06.277Z,28.14
2022-08-07T21:19:14.040Z,27.85
2022-08-07T21:22:19.412Z,28.04
2022-08-07T21:25:30.988Z,28.14
2022-08-07T21:28:51.280Z,28.02
2022-08-07T21:32:47.090Z,28.00
2022-08-07T21:36:06.484Z,28.12
2022-08-07T21:39:47.529Z,27.76
2022-08-07T21:42:46.449Z,28.23
2022-08-07T21:46:10.834Z,28.19
2022-08-07T21:49:28.184Z,28.37
2022-08-07T21:52:45.560Z,28.34
2022-08-07T21:55:57.514Z,28.36
2022-08-07T21:59:05.534Z,28.43
2022-08-07T22:02:20.400Z,28.39
2022-08-07T22:05:45.984Z,27.99
2022-08-07T22:08:57.076Z,28.01
2022-08-07T22:12:12.580Z,28.19
2022-08-07T22:16:43.304Z,28.22
2022-08-07T22:18:55.968Z,28.14
2022-08-07T22:22:29.153Z,28.22
2022-08-07T22:25:42.250Z,27.98
2022-08-07T22:28:53.126Z,28.03
2022-08-07T22:32:05.883Z,28.15
2022-08-07T22:35:11.202Z,27.99
2022-08-07T22:38:29.623Z,28.06
2022-08-07T22:42:03.118Z,27.99
2022-08-07T22:45:10.910Z,27.62
2022-08-07T22:48:55.493Z,27.54
2022-08-07T22:52:37.555Z,27.80
2022-08-07T22:55:52.855Z,27.34
2022-08-07T22:59:41.544Z,27.48
2022-08-07T23:03:21.538Z,27.52
2022-08-07T23:06:43.713Z,27.44
2022-08-07T23:10:37.326Z,27.50
2022-08-07T23:13:48.912Z,27.81
2022-08-07T23:17:36.955Z,27.57
2022-08-07T23:21:05.725Z,27.42
2022-08-07T23:24:29.603Z,27.47
2022-08-07T23:28:22.013Z,27.68
2022-08-07T23:34:22.320Z,27.01
2022-08-07T23:35:16.761Z,27.32
2022-08-07T23:38:36.209Z,27.14
2022-08-07T23:42:04.247Z,26.78
2022-08-07T23:45:33.132Z,27.10
2022-08-07T23:49:16.676Z,26.59
2022-08-07T23:53:11.785Z,26.81
2022-08-07T23:56:04.064Z,26.51
